sensor_id;sensor_type;location;lat;lon;timestamp;temperature;humidity
15298;DHT22;7750;48.796;9.026;2023-03-31T00:00:23;15.20;64.40
15298;DHT22;7750;48.796;9.026;2023-03-31T00:05:25;15.10;65.00
15298;DHT22;7750;48.796;9.026;2023-03-31T00:10:30;15.10;64.30
15298;DHT22;7750;48.796;9.026;2023-03-31T00:15:34;15.10;64.30
15298;DHT22;7750;48.796;9.026;2023-03-31T00:20:35;15.10;64.30
15298;DHT22;7750;48.796;9.026;2023-03-31T00:25:40;15.10;64.40
15298;DHT22;7750;48.796;9.026;2023-03-31T00:30:41;15.10;64.40
15298;DHT22;7750;48.796;9.026;2023-03-31T00:35:41;15.10;64.50
15298;DHT22;7750;48.796;9.026;2023-03-31T00:40:46;15.10;64.40
15298;DHT22;7750;48.796;9.026;2023-03-31T00:45:47;15.10;64.50
15298;DHT22;7750;48.796;9.026;2023-03-31T00:50:53;15.10;64.50
15298;DHT22;7750;48.796;9.026;2023-03-31T00:55:56;15.10;64.40
15298;DHT22;7750;48.796;9.026;2023-03-31T01:01:00;15.10;64.30
15298;DHT22;7750;48.796;9.026;2023-03-31T01:06:04;15.10;64.20
15298;DHT22;7750;48.796;9.026;2023-03-31T01:11:09;15.10;64.20
15298;DHT22;7750;48.796;9.026;2023-03-31T01:16:11;15.10;63.90
15298;DHT22;7750;48.796;9.026;2023-03-31T01:22:06;15.10;63.50
15298;DHT22;7750;48.796;9.026;2023-03-31T01:33:05;15.20;63.70
15298;DHT22;7750;48.796;9.026;2023-03-31T01:54:21;15.10;63.10
15298;DHT22;7750;48.796;9.026;2023-03-31T01:59:34;15.00;63.50
15298;DHT22;7750;48.796;9.026;2023-03-31T02:04:44;15.00;63.60
15298;DHT22;7750;48.796;9.026;2023-03-31T02:09:52;15.00;64.10
15298;DHT22;7750;48.796;9.026;2023-03-31T02:14:55;14.90;64.70
15298;DHT22;7750;48.796;9.026;2023-03-31T02:20:02;14.90;65.40
15298;DHT22;7750;48.796;9.026;2023-03-31T02:25:07;14.80;66.00
15298;DHT22;7750;48.796;9.026;2023-03-31T02:30:10;14.80;66.30
15298;DHT22;7750;48.796;9.026;2023-03-31T02:35:16;14.70;66.70
15298;DHT22;7750;48.796;9.026;2023-03-31T02:40:20;14.60;67.00
15298;DHT22;7750;48.796;9.026;2023-03-31T02:45:48;14.60;67.30
15298;DHT22;7750;48.796;9.026;2023-03-31T02:56:33;14.60;67.00
15298;DHT22;7750;48.796;9.026;2023-03-31T03:01:50;14.60;66.90
15298;DHT22;7750;48.796;9.026;2023-03-31T03:07:04;14.60;67.20
15298;DHT22;7750;48.796;9.026;2023-03-31T03:12:14;14.60;67.00
15298;DHT22;7750;48.796;9.026;2023-03-31T03:17:32;14.60;67.00
15298;DHT22;7750;48.796;9.026;2023-03-31T03:22:35;14.50;66.70
15298;DHT22;7750;48.796;9.026;2023-03-31T03:27:37;14.50;66.70
15298;DHT22;7750;48.796;9.026;2023-03-31T03:32:38;14.40;66.90
15298;DHT22;7750;48.796;9.026;2023-03-31T03:37:40;14.40;67.10
15298;DHT22;7750;48.796;9.026;2023-03-31T03:42:41;14.40;67.10
15298;DHT22;7750;48.796;9.026;2023-03-31T03:47:42;14.40;67.40
15298;DHT22;7750;48.796;9.026;2023-03-31T03:52:43;14.40;67.50
15298;DHT22;7750;48.796;9.026;2023-03-31T03:57:43;14.40;67.60
15298;DHT22;7750;48.796;9.026;2023-03-31T04:07:53;14.30;67.80
15298;DHT22;7750;48.796;9.026;2023-03-31T04:12:53;14.20;68.10
15298;DHT22;7750;48.796;9.026;2023-03-31T04:17:54;14.20;68.80
15298;DHT22;7750;48.796;9.026;2023-03-31T04:22:57;14.10;68.60
15298;DHT22;7750;48.796;9.026;2023-03-31T04:27:57;14.10;68.70
15298;DHT22;7750;48.796;9.026;2023-03-31T04:33:01;14.10;68.80
15298;DHT22;7750;48.796;9.026;2023-03-31T04:38:03;14.10;69.10
15298;DHT22;7750;48.796;9.026;2023-03-31T04:43:04;14.10;69.40
15298;DHT22;7750;48.796;9.026;2023-03-31T04:48:05;14.10;69.00
15298;DHT22;7750;48.796;9.026;2023-03-31T04:53:05;14.10;69.10
15298;DHT22;7750;48.796;9.026;2023-03-31T04:58:06;14.20;69.30
15298;DHT22;7750;48.796;9.026;2023-03-31T05:03:07;14.10;69.50
15298;DHT22;7750;48.796;9.026;2023-03-31T05:08:08;14.10;69.80
15298;DHT22;7750;48.796;9.026;2023-03-31T05:13:10;14.20;69.70
15298;DHT22;7750;48.796;9.026;2023-03-31T05:18:11;14.10;70.40
15298;DHT22;7750;48.796;9.026;2023-03-31T05:23:14;14.10;71.50
15298;DHT22;7750;48.796;9.026;2023-03-31T05:28:15;14.00;72.00
15298;DHT22;7750;48.796;9.026;2023-03-31T05:33:16;13.90;72.20
15298;DHT22;7750;48.796;9.026;2023-03-31T05:38:16;13.90;72.70
15298;DHT22;7750;48.796;9.026;2023-03-31T05:43:17;13.80;72.70
15298;DHT22;7750;48.796;9.026;2023-03-31T05:48:18;13.80;72.90
15298;DHT22;7750;48.796;9.026;2023-03-31T05:53:19;13.80;74.00
15298;DHT22;7750;48.796;9.026;2023-03-31T05:58:19;13.70;73.80
15298;DHT22;7750;48.796;9.026;2023-03-31T06:03:20;13.70;73.80
15298;DHT22;7750;48.796;9.026;2023-03-31T06:08:21;13.70;73.50
15298;DHT22;7750;48.796;9.026;2023-03-31T06:13:22;13.70;73.80
15298;DHT22;7750;48.796;9.026;2023-03-31T06:18:23;13.70;74.30
15298;DHT22;7750;48.796;9.026;2023-03-31T06:23:25;13.70;74.20
15298;DHT22;7750;48.796;9.026;2023-03-31T06:28:25;13.70;74.20
15298;DHT22;7750;48.796;9.026;2023-03-31T06:33:26;13.70;75.00
15298;DHT22;7750;48.796;9.026;2023-03-31T06:38:27;13.70;74.70
15298;DHT22;7750;48.796;9.026;2023-03-31T06:43:28;13.70;74.80
15298;DHT22;7750;48.796;9.026;2023-03-31T06:48:28;13.70;75.20
15298;DHT22;7750;48.796;9.026;2023-03-31T06:53:29;13.70;75.60
15298;DHT22;7750;48.796;9.026;2023-03-31T06:58:30;13.60;75.60
15298;DHT22;7750;48.796;9.026;2023-03-31T07:03:31;13.50;77.10
15298;DHT22;7750;48.796;9.026;2023-03-31T07:08:32;13.50;78.00
15298;DHT22;7750;48.796;9.026;2023-03-31T07:13:33;13.40;78.40
15298;DHT22;7750;48.796;9.026;2023-03-31T07:18:34;13.40;77.60
15298;DHT22;7750;48.796;9.026;2023-03-31T07:23:36;13.40;78.10
15298;DHT22;7750;48.796;9.026;2023-03-31T07:28:37;13.40;78.20
15298;DHT22;7750;48.796;9.026;2023-03-31T07:33:38;13.30;78.00
15298;DHT22;7750;48.796;9.026;2023-03-31T07:38:40;13.30;77.90
15298;DHT22;7750;48.796;9.026;2023-03-31T07:43:42;13.50;78.40
15298;DHT22;7750;48.796;9.026;2023-03-31T07:48:43;13.90;78.10
15298;DHT22;7750;48.796;9.026;2023-03-31T07:53:46;14.30;77.50
15298;DHT22;7750;48.796;9.026;2023-03-31T07:58:49;14.90;75.30
15298;DHT22;7750;48.796;9.026;2023-03-31T08:03:53;15.40;74.20
15298;DHT22;7750;48.796;9.026;2023-03-31T08:08:55;15.70;72.10
15298;DHT22;7750;48.796;9.026;2023-03-31T08:13:56;16.00;71.60
15298;DHT22;7750;48.796;9.026;2023-03-31T08:18:56;16.40;70.50
15298;DHT22;7750;48.796;9.026;2023-03-31T08:23:57;16.70;69.00
15298;DHT22;7750;48.796;9.026;2023-03-31T08:28:58;17.00;68.70
15298;DHT22;7750;48.796;9.026;2023-03-31T08:33:58;17.20;68.50
15298;DHT22;7750;48.796;9.026;2023-03-31T08:38:59;17.50;66.40
15298;DHT22;7750;48.796;9.026;2023-03-31T08:44:03;17.70;67.40
15298;DHT22;7750;48.796;9.026;2023-03-31T08:49:06;17.90;66.80
15298;DHT22;7750;48.796;9.026;2023-03-31T08:54:20;17.90;65.90
15298;DHT22;7750;48.796;9.026;2023-03-31T08:59:35;17.80;64.90
15298;DHT22;7750;48.796;9.026;2023-03-31T09:15:00;17.50;62.30
15298;DHT22;7750;48.796;9.026;2023-03-31T09:20:15;17.40;62.20
15298;DHT22;7750;48.796;9.026;2023-03-31T09:25:21;17.30;61.90
15298;DHT22;7750;48.796;9.026;2023-03-31T09:30:29;17.20;60.20
15298;DHT22;7750;48.796;9.026;2023-03-31T09:35:30;17.20;60.30
15298;DHT22;7750;48.796;9.026;2023-03-31T09:40:33;17.20;59.50
15298;DHT22;7750;48.796;9.026;2023-03-31T09:45:34;17.10;58.70
15298;DHT22;7750;48.796;9.026;2023-03-31T09:50:42;17.10;58.60
15298;DHT22;7750;48.796;9.026;2023-03-31T09:55:51;17.00;58.30
15298;DHT22;7750;48.796;9.026;2023-03-31T10:01:12;17.00;58.20
15298;DHT22;7750;48.796;9.026;2023-03-31T10:06:15;17.00;58.20
15298;DHT22;7750;48.796;9.026;2023-03-31T10:11:16;17.10;58.70
15298;DHT22;7750;48.796;9.026;2023-03-31T10:16:28;17.20;58.80
15298;DHT22;7750;48.796;9.026;2023-03-31T10:21:35;17.40;58.00
15298;DHT22;7750;48.796;9.026;2023-03-31T10:26:39;17.60;58.50
15298;DHT22;7750;48.796;9.026;2023-03-31T10:31:40;17.70;57.00
15298;DHT22;7750;48.796;9.026;2023-03-31T10:36:45;17.70;57.10
15298;DHT22;7750;48.796;9.026;2023-03-31T10:41:51;17.80;57.20
15298;DHT22;7750;48.796;9.026;2023-03-31T10:46:52;17.80;57.00
15298;DHT22;7750;48.796;9.026;2023-03-31T10:51:58;17.90;56.80
15298;DHT22;7750;48.796;9.026;2023-03-31T10:57:04;18.00;56.20
15298;DHT22;7750;48.796;9.026;2023-03-31T11:07:37;18.00;54.30
15298;DHT22;7750;48.796;9.026;2023-03-31T11:12:46;17.90;55.00
15298;DHT22;7750;48.796;9.026;2023-03-31T11:23:47;17.00;61.80
15298;DHT22;7750;48.796;9.026;2023-03-31T11:29:02;16.20;60.40
15298;DHT22;7750;48.796;9.026;2023-03-31T11:44:51;14.40;65.20
15298;DHT22;7750;48.796;9.026;2023-03-31T11:49:56;14.00;66.10
15298;DHT22;7750;48.796;9.026;2023-03-31T11:55:13;13.80;66.40
15298;DHT22;7750;48.796;9.026;2023-03-31T12:00:35;13.70;67.20
15298;DHT22;7750;48.796;9.026;2023-03-31T12:05:44;13.70;66.80
15298;DHT22;7750;48.796;9.026;2023-03-31T12:10:51;13.80;67.80
15298;DHT22;7750;48.796;9.026;2023-03-31T12:16:13;14.00;67.80
15298;DHT22;7750;48.796;9.026;2023-03-31T12:21:14;14.30;68.60
15298;DHT22;7750;48.796;9.026;2023-03-31T12:32:11;15.00;66.50
15298;DHT22;7750;48.796;9.026;2023-03-31T12:37:40;15.30;65.60
15298;DHT22;7750;48.796;9.026;2023-03-31T12:43:03;15.60;64.30
15298;DHT22;7750;48.796;9.026;2023-03-31T13:24:30;16.40;62.20
15298;DHT22;7750;48.796;9.026;2023-03-31T13:34:55;15.60;65.20
15298;DHT22;7750;48.796;9.026;2023-03-31T13:40:19;15.20;64.40
15298;DHT22;7750;48.796;9.026;2023-03-31T13:56:43;14.00;66.00
15298;DHT22;7750;48.796;9.026;2023-03-31T14:07:43;13.60;66.40
15298;DHT22;7750;48.796;9.026;2023-03-31T14:12:45;13.60;67.40
15298;DHT22;7750;48.796;9.026;2023-03-31T14:17:48;13.70;68.70
15298;DHT22;7750;48.796;9.026;2023-03-31T14:23:22;14.00;68.40
15298;DHT22;7750;48.796;9.026;2023-03-31T14:39:19;14.90;67.30
15298;DHT22;7750;48.796;9.026;2023-03-31T14:44:24;15.10;65.60
15298;DHT22;7750;48.796;9.026;2023-03-31T14:49:28;15.30;65.60
15298;DHT22;7750;48.796;9.026;2023-03-31T14:54:33;15.40;64.20
15298;DHT22;7750;48.796;9.026;2023-03-31T14:59:37;15.50;64.70
15298;DHT22;7750;48.796;9.026;2023-03-31T15:04:40;15.60;65.10
15298;DHT22;7750;48.796;9.026;2023-03-31T15:10:24;15.80;63.60
15298;DHT22;7750;48.796;9.026;2023-03-31T15:15:26;15.90;64.30
15298;DHT22;7750;48.796;9.026;2023-03-31T15:20:35;15.80;63.10
15298;DHT22;7750;48.796;9.026;2023-03-31T15:25:39;15.80;63.70
15298;DHT22;7750;48.796;9.026;2023-03-31T15:30:41;15.90;63.60
15298;DHT22;7750;48.796;9.026;2023-03-31T15:35:43;15.90;62.40
15298;DHT22;7750;48.796;9.026;2023-03-31T15:40:48;15.90;62.40
15298;DHT22;7750;48.796;9.026;2023-03-31T15:45:54;15.70;62.80
15298;DHT22;7750;48.796;9.026;2023-03-31T15:56:42;15.60;61.90
15298;DHT22;7750;48.796;9.026;2023-03-31T16:02:19;15.50;62.50
15298;DHT22;7750;48.796;9.026;2023-03-31T16:18:10;15.40;62.80
15298;DHT22;7750;48.796;9.026;2023-03-31T16:23:37;15.20;63.30
15298;DHT22;7750;48.796;9.026;2023-03-31T16:28:40;15.10;62.60
15298;DHT22;7750;48.796;9.026;2023-03-31T16:34:01;15.00;63.50
15298;DHT22;7750;48.796;9.026;2023-03-31T16:39:51;14.80;63.10
15298;DHT22;7750;48.796;9.026;2023-03-31T16:50:33;14.50;64.30
15298;DHT22;7750;48.796;9.026;2023-03-31T17:01:43;14.50;64.20
15298;DHT22;7750;48.796;9.026;2023-03-31T17:29:19;13.90;64.10
15298;DHT22;7750;48.796;9.026;2023-03-31T17:40:15;13.80;65.50
15298;DHT22;7750;48.796;9.026;2023-03-31T17:45:16;13.70;65.40
15298;DHT22;7750;48.796;9.026;2023-03-31T17:50:20;13.60;65.40
15298;DHT22;7750;48.796;9.026;2023-03-31T17:55:20;13.60;66.30
15298;DHT22;7750;48.796;9.026;2023-03-31T18:00:24;13.60;67.00
15298;DHT22;7750;48.796;9.026;2023-03-31T18:05:26;13.60;67.90
15298;DHT22;7750;48.796;9.026;2023-03-31T18:10:35;13.50;68.70
15298;DHT22;7750;48.796;9.026;2023-03-31T18:15:37;13.50;69.50
15298;DHT22;7750;48.796;9.026;2023-03-31T18:20:38;13.40;69.90
15298;DHT22;7750;48.796;9.026;2023-03-31T18:25:41;13.30;69.10
15298;DHT22;7750;48.796;9.026;2023-03-31T18:30:44;13.20;69.80
15298;DHT22;7750;48.796;9.026;2023-03-31T18:35:50;13.20;69.70
15298;DHT22;7750;48.796;9.026;2023-03-31T18:40:55;13.10;70.30
15298;DHT22;7750;48.796;9.026;2023-03-31T18:46:04;13.00;70.60
15298;DHT22;7750;48.796;9.026;2023-03-31T18:51:05;13.00;71.00
15298;DHT22;7750;48.796;9.026;2023-03-31T18:56:06;12.90;71.10
15298;DHT22;7750;48.796;9.026;2023-03-31T19:01:07;12.90;71.70
15298;DHT22;7750;48.796;9.026;2023-03-31T19:06:14;12.80;72.10
15298;DHT22;7750;48.796;9.026;2023-03-31T19:11:16;12.80;72.50
15298;DHT22;7750;48.796;9.026;2023-03-31T19:16:17;12.80;72.70
15298;DHT22;7750;48.796;9.026;2023-03-31T19:21:18;12.80;73.00
15298;DHT22;7750;48.796;9.026;2023-03-31T19:26:19;12.70;72.50
15298;DHT22;7750;48.796;9.026;2023-03-31T19:31:20;12.70;73.20
15298;DHT22;7750;48.796;9.026;2023-03-31T19:36:24;12.70;73.00
15298;DHT22;7750;48.796;9.026;2023-03-31T19:41:34;12.60;72.90
15298;DHT22;7750;48.796;9.026;2023-03-31T19:46:35;12.70;73.00
15298;DHT22;7750;48.796;9.026;2023-03-31T19:51:36;12.70;73.10
15298;DHT22;7750;48.796;9.026;2023-03-31T19:56:37;12.70;72.60
15298;DHT22;7750;48.796;9.026;2023-03-31T20:01:38;12.70;72.60
15298;DHT22;7750;48.796;9.026;2023-03-31T20:06:44;12.70;72.50
15298;DHT22;7750;48.796;9.026;2023-03-31T20:11:45;12.70;72.40
15298;DHT22;7750;48.796;9.026;2023-03-31T20:16:55;12.80;72.30
15298;DHT22;7750;48.796;9.026;2023-03-31T20:22:00;12.80;72.60
15298;DHT22;7750;48.796;9.026;2023-03-31T20:27:01;12.80;72.80
15298;DHT22;7750;48.796;9.026;2023-03-31T20:32:02;12.80;73.20
15298;DHT22;7750;48.796;9.026;2023-03-31T20:37:05;12.70;73.60
15298;DHT22;7750;48.796;9.026;2023-03-31T20:42:06;12.70;74.10
15298;DHT22;7750;48.796;9.026;2023-03-31T20:47:06;12.70;73.90
15298;DHT22;7750;48.796;9.026;2023-03-31T20:52:10;12.60;74.20
15298;DHT22;7750;48.796;9.026;2023-03-31T20:57:11;12.60;74.50
15298;DHT22;7750;48.796;9.026;2023-03-31T21:02:12;12.60;74.40
15298;DHT22;7750;48.796;9.026;2023-03-31T21:07:13;12.60;74.30
15298;DHT22;7750;48.796;9.026;2023-03-31T21:12:19;12.60;74.00
15298;DHT22;7750;48.796;9.026;2023-03-31T21:17:20;12.60;74.30
15298;DHT22;7750;48.796;9.026;2023-03-31T21:22:21;12.60;74.30
15298;DHT22;7750;48.796;9.026;2023-03-31T21:27:21;12.60;74.20
15298;DHT22;7750;48.796;9.026;2023-03-31T21:32:22;12.60;74.30
15298;DHT22;7750;48.796;9.026;2023-03-31T21:37:23;12.60;74.30
15298;DHT22;7750;48.796;9.026;2023-03-31T21:42:26;12.60;74.40
15298;DHT22;7750;48.796;9.026;2023-03-31T21:47:28;12.60;74.30
15298;DHT22;7750;48.796;9.026;2023-03-31T21:52:28;12.60;74.60
15298;DHT22;7750;48.796;9.026;2023-03-31T21:57:29;12.60;74.80
15298;DHT22;7750;48.796;9.026;2023-03-31T22:02:31;12.60;75.10
15298;DHT22;7750;48.796;9.026;2023-03-31T22:07:31;12.50;74.80
15298;DHT22;7750;48.796;9.026;2023-03-31T22:12:32;12.50;74.80
15298;DHT22;7750;48.796;9.026;2023-03-31T22:17:33;12.40;74.70
15298;DHT22;7750;48.796;9.026;2023-03-31T22:22:36;12.40;74.60
15298;DHT22;7750;48.796;9.026;2023-03-31T22:27:36;12.40;74.80
15298;DHT22;7750;48.796;9.026;2023-03-31T22:32:37;12.30;74.90
15298;DHT22;7750;48.796;9.026;2023-03-31T22:37:38;12.40;74.70
15298;DHT22;7750;48.796;9.026;2023-03-31T22:42:38;12.30;74.50
15298;DHT22;7750;48.796;9.026;2023-03-31T22:47:39;12.30;74.70
15298;DHT22;7750;48.796;9.026;2023-03-31T22:52:41;12.30;74.60
15298;DHT22;7750;48.796;9.026;2023-03-31T22:57:46;12.20;74.60
15298;DHT22;7750;48.796;9.026;2023-03-31T23:02:47;12.20;74.90
15298;DHT22;7750;48.796;9.026;2023-03-31T23:07:48;12.20;75.50
15298;DHT22;7750;48.796;9.026;2023-03-31T23:12:57;12.10;75.40
15298;DHT22;7750;48.796;9.026;2023-03-31T23:17:58;12.10;75.10
15298;DHT22;7750;48.796;9.026;2023-03-31T23:22:59;12.10;75.40
15298;DHT22;7750;48.796;9.026;2023-03-31T23:28:02;12.10;75.30
15298;DHT22;7750;48.796;9.026;2023-03-31T23:33:02;12.10;75.20
15298;DHT22;7750;48.796;9.026;2023-03-31T23:38:03;12.00;75.30
15298;DHT22;7750;48.796;9.026;2023-03-31T23:43:04;12.00;75.10
15298;DHT22;7750;48.796;9.026;2023-03-31T23:48:04;12.00;75.00
15298;DHT22;7750;48.796;9.026;2023-03-31T23:53:05;12.00;75.60
15298;DHT22;7750;48.796;9.026;2023-03-31T23:58:06;11.90;74.80
